createdAt,value
2019-06-08T00:00:28.840Z,0
2019-06-08T00:01:28.351Z,0
2019-06-08T00:02:28.709Z,0
2019-06-08T00:03:28.389Z,0
2019-06-08T00:04:28.150Z,0
2019-06-08T00:05:28.806Z,0
2019-06-08T00:06:28.941Z,0
2019-06-08T00:07:28.369Z,0
2019-06-08T00:08:28.320Z,0
2019-06-08T00:09:29.701Z,0
2019-06-08T00:10:31.418Z,0
2019-06-08T00:11:28.702Z,0
2019-06-08T00:12:27.114Z,0
2019-06-08T00:13:28.449Z,0
2019-06-08T00:14:28.213Z,0
2019-06-08T00:15:27.602Z,0
2019-06-08T00:16:27.098Z,0
2019-06-08T00:17:47.804Z,0
2019-06-08T00:18:27.174Z,0
2019-06-08T00:23:45.243Z,0
2019-06-08T00:23:56.651Z,0
2019-06-08T00:24:56.228Z,0
2019-06-08T00:25:56.233Z,0
2019-06-08T00:26:56.231Z,0
2019-06-08T00:28:06.493Z,0
2019-06-08T00:28:56.203Z,0
2019-06-08T00:29:56.538Z,0
2019-06-08T00:30:56.298Z,0
2019-06-08T00:31:56.217Z,0
2019-06-08T00:32:56.323Z,0
2019-06-08T00:33:56.231Z,0
2019-06-08T00:34:56.211Z,0
2019-06-08T00:35:56.566Z,0
2019-06-08T00:36:56.266Z,0
2019-06-08T00:37:56.311Z,0
2019-06-08T00:38:56.256Z,0
2019-06-08T00:39:56.307Z,0
2019-06-08T00:40:56.216Z,0
2019-06-08T00:41:56.606Z,0
2019-06-08T00:42:56.315Z,0
2019-06-08T00:43:56.241Z,0
2019-06-08T00:44:56.260Z,0
2019-06-08T00:45:56.287Z,0
2019-06-08T00:46:56.420Z,0
2019-06-08T00:47:58.960Z,0
2019-06-08T00:48:56.269Z,0
2019-06-08T00:49:56.260Z,0
2019-06-08T00:50:56.297Z,0
2019-06-08T00:51:56.372Z,0
2019-06-08T00:52:56.330Z,0
2019-06-08T00:53:56.612Z,0
2019-06-08T00:54:56.209Z,0
2019-06-08T00:55:56.229Z,0
2019-06-08T00:56:56.379Z,0
2019-06-08T00:58:06.586Z,0
2019-06-08T00:58:56.266Z,0
2019-06-08T00:59:56.578Z,0
2019-06-08T01:00:59.359Z,0
2019-06-08T01:01:56.306Z,0
2019-06-08T01:02:56.291Z,0
2019-06-08T01:03:56.301Z,0
2019-06-08T01:09:12.291Z,0
2019-06-08T01:09:24.219Z,0
2019-06-08T01:10:25.503Z,0
2019-06-08T01:11:25.151Z,0
2019-06-08T01:12:25.151Z,0
2019-06-08T01:13:26.620Z,0
2019-06-08T01:14:25.508Z,0
2019-06-08T01:15:36.390Z,0
2019-06-08T01:16:25.001Z,0
2019-06-08T01:17:25.601Z,0
2019-06-08T01:18:29.304Z,0
2019-06-08T01:19:25.725Z,0
2019-06-08T01:20:27.347Z,0
2019-06-08T01:21:25.862Z,0
2019-06-08T01:22:27.610Z,0
2019-06-08T01:23:26.073Z,0
2019-06-08T01:24:26.268Z,0
2019-06-08T01:25:26.389Z,0
2019-06-08T01:26:26.021Z,0
2019-06-08T01:27:25.980Z,0
2019-06-08T01:28:26.136Z,0
2019-06-08T01:29:26.201Z,0
2019-06-08T01:30:24.686Z,0
2019-06-08T01:31:26.428Z,0
2019-06-08T01:32:24.266Z,0
2019-06-08T01:33:24.442Z,0
2019-06-08T01:34:24.636Z,0
2019-06-08T01:35:24.802Z,0
2019-06-08T01:36:23.321Z,0
2019-06-08T01:37:24.681Z,0
2019-06-08T01:38:25.034Z,0
2019-06-08T01:39:24.812Z,0
2019-06-08T01:40:25.272Z,0
2019-06-08T01:41:25.376Z,0
2019-06-08T01:42:25.483Z,0
2019-06-08T01:43:25.701Z,0
2019-06-08T01:44:24.154Z,0
2019-06-08T01:45:24.269Z,0
2019-06-08T01:46:25.800Z,0
2019-06-08T01:47:24.956Z,0
2019-06-08T01:48:32.883Z,0
2019-06-08T01:49:26.142Z,0
2019-06-08T01:50:26.135Z,0
2019-06-08T01:51:24.529Z,0
2019-06-08T01:52:24.321Z,0
2019-06-08T01:53:24.595Z,0
2019-06-08T01:54:23.325Z,0
2019-06-08T01:55:25.047Z,0
2019-06-08T01:56:23.433Z,0
2019-06-08T01:57:23.303Z,0
2019-06-08T01:58:23.403Z,0
2019-06-08T01:59:23.384Z,0
2019-06-08T02:00:48.458Z,0
2019-06-08T02:01:23.679Z,0
2019-06-08T02:02:23.774Z,0
2019-06-08T02:09:51.783Z,0
2019-06-08T02:10:02.754Z,0
2019-06-08T02:11:02.836Z,0
2019-06-08T02:12:02.769Z,0
2019-06-08T02:13:02.847Z,0
2019-06-08T02:14:03.148Z,0
2019-06-08T02:15:02.795Z,0
2019-06-08T02:16:02.813Z,0
2019-06-08T02:17:02.838Z,0
2019-06-08T02:18:03.041Z,0
2019-06-08T02:19:02.813Z,0
2019-06-08T02:20:03.117Z,0
2019-06-08T02:21:02.867Z,0
2019-06-08T02:22:02.788Z,0
2019-06-08T02:23:02.817Z,0
2019-06-08T02:24:02.819Z,0
2019-06-08T02:25:02.763Z,0
2019-06-08T02:26:03.117Z,0
2019-06-08T02:27:02.762Z,0
2019-06-08T02:28:27.342Z,0
2019-06-08T02:29:02.992Z,0
2019-06-08T02:30:02.809Z,0
2019-06-08T02:31:02.840Z,0
2019-06-08T02:32:02.851Z,0
2019-06-08T02:33:02.833Z,0
2019-06-08T02:34:02.793Z,0
2019-06-08T02:35:02.806Z,0
2019-06-08T02:36:03.108Z,0
2019-06-08T02:37:02.762Z,0
2019-06-08T02:38:03.142Z,0
2019-06-08T02:39:02.770Z,0
2019-06-08T02:40:02.833Z,0
2019-06-08T02:41:02.803Z,0
2019-06-08T02:42:02.854Z,0
2019-06-08T02:43:02.794Z,0
2019-06-08T02:44:03.130Z,0
2019-06-08T02:45:02.779Z,0
2019-06-08T02:46:02.877Z,0
2019-06-08T02:47:02.829Z,0
2019-06-08T02:48:02.878Z,0
2019-06-08T02:49:13.992Z,0
2019-06-08T02:50:03.125Z,0
2019-06-08T02:51:02.828Z,0
2019-06-08T02:52:02.849Z,0
2019-06-08T02:53:02.821Z,0
2019-06-08T02:54:02.854Z,0
2019-06-08T02:55:02.872Z,0
2019-06-08T02:56:03.154Z,0
2019-06-08T02:57:02.824Z,0
2019-06-08T02:58:11.132Z,0
2019-06-08T02:59:02.805Z,0
2019-06-08T03:00:02.957Z,0
2019-06-08T03:01:06.175Z,0
2019-06-08T03:02:02.922Z,0
2019-06-08T03:03:02.825Z,0
2019-06-08T03:04:02.812Z,0
2019-06-08T03:05:02.883Z,0
2019-06-08T03:06:02.944Z,0
2019-06-08T03:07:02.847Z,0
2019-06-08T03:08:03.353Z,0
2019-06-08T03:09:02.820Z,0
2019-06-08T03:10:02.872Z,0
2019-06-08T03:11:02.883Z,0
2019-06-08T03:12:02.880Z,0
2019-06-08T03:13:02.850Z,0
2019-06-08T03:14:03.267Z,0
2019-06-08T03:15:02.925Z,0
2019-06-08T03:16:04.075Z,0
2019-06-08T03:17:02.921Z,0
2019-06-08T03:18:04.214Z,0
2019-06-08T03:19:22.997Z,0
2019-06-08T03:20:02.885Z,0
2019-06-08T03:21:02.945Z,0
2019-06-08T03:22:02.850Z,0
2019-06-08T03:23:04.327Z,0
2019-06-08T03:24:02.940Z,0
2019-06-08T03:25:02.888Z,0
2019-06-08T03:26:04.433Z,0
2019-06-08T03:27:02.928Z,0
2019-06-08T03:28:11.542Z,0
2019-06-08T03:29:02.965Z,0
2019-06-08T03:30:15.717Z,0
2019-06-08T03:31:05.187Z,0
2019-06-08T03:32:06.873Z,0
2019-06-08T03:33:07.115Z,0
2019-06-08T03:34:06.178Z,0
2019-06-08T03:35:07.309Z,0
2019-06-08T03:36:08.560Z,0
2019-06-08T03:37:07.334Z,0
2019-06-08T03:38:03.228Z,0
2019-06-08T03:39:02.886Z,0
2019-06-08T03:40:02.913Z,0
2019-06-08T03:41:03.083Z,0
2019-06-08T03:42:02.924Z,0
2019-06-08T03:43:07.206Z,0
2019-06-08T03:44:03.285Z,0
2019-06-08T03:45:02.921Z,0
2019-06-08T03:46:03.038Z,0
2019-06-08T03:47:02.935Z,0
2019-06-08T03:48:02.956Z,0
2019-06-08T03:49:02.952Z,0
2019-06-08T03:50:08.330Z,0
2019-06-08T03:51:02.917Z,0
2019-06-08T03:52:02.943Z,0
2019-06-08T03:53:02.978Z,0
2019-06-08T03:54:02.918Z,0
2019-06-08T03:55:02.973Z,0
2019-06-08T03:56:03.257Z,0
2019-06-08T03:57:02.950Z,0
2019-06-08T03:58:17.078Z,0
2019-06-08T03:59:02.938Z,0
2019-06-08T04:00:12.516Z,0
2019-06-08T04:01:02.938Z,0
2019-06-08T04:02:03.244Z,0
2019-06-08T04:03:02.948Z,0
2019-06-08T04:04:07.767Z,0
2019-06-08T04:05:02.955Z,0
2019-06-08T04:06:02.963Z,0
2019-06-08T04:07:02.946Z,0
2019-06-08T04:08:03.259Z,0
2019-06-08T04:09:02.965Z,0
2019-06-08T04:10:02.930Z,0
2019-06-08T04:11:02.943Z,0
2019-06-08T04:12:02.966Z,0
2019-06-08T04:13:02.942Z,0
2019-06-08T04:14:03.269Z,0
2019-06-08T04:15:03.101Z,0
2019-06-08T04:16:02.986Z,0
2019-06-08T04:17:03.012Z,0
2019-06-08T04:18:03.212Z,0
2019-06-08T04:19:02.925Z,0
2019-06-08T04:20:20.507Z,0
2019-06-08T04:21:02.982Z,0
2019-06-08T04:22:03.017Z,0
2019-06-08T04:23:02.911Z,0
2019-06-08T04:24:03.456Z,0
2019-06-08T04:25:02.985Z,0
2019-06-08T04:26:02.968Z,0
2019-06-08T04:27:02.984Z,0
2019-06-08T04:28:02.987Z,0
2019-06-08T04:29:03.489Z,0
2019-06-08T04:30:03.083Z,0
2019-06-08T04:31:03.007Z,0
2019-06-08T04:32:03.261Z,0
2019-06-08T04:33:02.990Z,0
2019-06-08T04:34:03.001Z,0
2019-06-08T04:35:02.959Z,0
2019-06-08T04:36:03.009Z,0
2019-06-08T04:37:02.994Z,0
2019-06-08T04:38:03.375Z,0
2019-06-08T04:39:03.030Z,0
2019-06-08T04:40:03.006Z,0
2019-06-08T04:41:03.069Z,0
2019-06-08T04:42:03.053Z,0
2019-06-08T04:43:03.034Z,0
2019-06-08T04:44:03.310Z,0
2019-06-08T04:45:03.040Z,0
2019-06-08T04:46:03.081Z,0
2019-06-08T04:47:03.030Z,0
2019-06-08T04:48:03.019Z,0
2019-06-08T04:49:03.012Z,0
2019-06-08T04:50:24.266Z,0
2019-06-08T04:51:03.034Z,0
2019-06-08T04:52:03.003Z,0
2019-06-08T04:53:03.032Z,0
2019-06-08T04:54:03.026Z,0
2019-06-08T04:55:03.109Z,0
2019-06-08T04:56:03.396Z,0
2019-06-08T04:57:03.003Z,0
2019-06-08T04:58:03.144Z,0
2019-06-08T04:59:03.112Z,0
2019-06-08T05:00:13.701Z,0
2019-06-08T05:01:03.098Z,0
2019-06-08T05:02:03.291Z,0
2019-06-08T05:03:03.050Z,0
2019-06-08T05:04:03.035Z,0
2019-06-08T05:05:03.120Z,0
2019-06-08T05:06:03.054Z,0
2019-06-08T05:07:03.091Z,0
2019-06-08T05:08:03.426Z,0
2019-06-08T05:09:03.087Z,0
2019-06-08T05:10:03.048Z,0
2019-06-08T05:11:03.127Z,0
2019-06-08T05:12:03.140Z,0
2019-06-08T05:13:03.092Z,0
2019-06-08T05:14:03.416Z,0
2019-06-08T05:15:03.191Z,0
2019-06-08T05:16:03.112Z,0
2019-06-08T05:17:03.081Z,0
2019-06-08T05:18:03.041Z,0
2019-06-08T05:19:03.178Z,0
2019-06-08T05:20:03.641Z,0
2019-06-08T05:21:03.166Z,0
2019-06-08T05:22:03.055Z,0
2019-06-08T05:23:03.080Z,0
2019-06-08T05:24:09.213Z,0
2019-06-08T05:25:03.169Z,0
2019-06-08T05:26:03.080Z,0
2019-06-08T05:27:03.100Z,0
2019-06-08T05:28:03.066Z,0
2019-06-08T05:29:03.243Z,0
2019-06-08T05:30:10.947Z,0
2019-06-08T05:31:03.121Z,0
2019-06-08T05:32:03.648Z,0
2019-06-08T05:33:03.102Z,0
2019-06-08T05:34:03.073Z,0
2019-06-08T05:35:03.120Z,0
2019-06-08T05:36:03.129Z,0
2019-06-08T05:37:03.096Z,0
2019-06-08T05:38:03.424Z,0
2019-06-08T05:39:03.378Z,0
2019-06-08T05:40:03.084Z,0
2019-06-08T05:41:03.081Z,0
2019-06-08T05:42:03.103Z,0
2019-06-08T05:43:03.217Z,0
2019-06-08T05:44:03.449Z,0
2019-06-08T05:45:03.122Z,0
2019-06-08T05:46:03.082Z,0
2019-06-08T05:47:03.107Z,0
2019-06-08T05:48:03.234Z,0
2019-06-08T05:49:03.164Z,0
2019-06-08T05:50:03.495Z,0
2019-06-08T05:51:13.912Z,0
2019-06-08T05:52:03.167Z,0
2019-06-08T05:53:03.139Z,0
2019-06-08T05:54:05.613Z,0
2019-06-08T05:55:03.244Z,0
2019-06-08T05:56:03.526Z,0
2019-06-08T05:57:03.178Z,0
2019-06-08T05:58:03.166Z,0
2019-06-08T05:59:03.161Z,0
2019-06-08T06:00:11.911Z,0
2019-06-08T06:01:07.360Z,0
2019-06-08T06:02:03.793Z,0
2019-06-08T06:03:03.145Z,0
2019-06-08T06:04:03.161Z,0
2019-06-08T06:05:04.431Z,0
2019-06-08T06:06:03.133Z,0
2019-06-08T06:07:03.174Z,5
2019-06-08T06:08:15.682Z,5
2019-06-08T06:13:21.157Z,5
2019-06-08T06:13:32.455Z,5
2019-06-08T06:14:32.159Z,5
2019-06-08T06:15:32.192Z,5
2019-06-08T06:16:32.132Z,5
2019-06-08T06:17:32.424Z,0
2019-06-08T06:18:32.540Z,0
2019-06-08T06:19:32.771Z,0
2019-06-08T06:20:32.386Z,0
2019-06-08T06:21:32.573Z,0
2019-06-08T06:22:32.336Z,0
2019-06-08T06:23:32.389Z,5
2019-06-08T06:24:32.162Z,5
2019-06-08T06:25:32.892Z,5
2019-06-08T06:26:32.260Z,5
2019-06-08T06:27:32.147Z,5
2019-06-08T06:28:43.300Z,5
2019-06-08T06:29:32.255Z,5
2019-06-08T06:30:32.249Z,5
2019-06-08T06:31:32.515Z,5
2019-06-08T06:32:32.255Z,5
2019-06-08T06:33:32.160Z,5
2019-06-08T06:34:32.231Z,5
2019-06-08T06:35:32.222Z,5
2019-06-08T06:36:32.299Z,5
2019-06-08T06:37:32.514Z,5
2019-06-08T06:38:32.199Z,5
2019-06-08T06:39:32.241Z,5
2019-06-08T06:40:32.209Z,5
2019-06-08T06:41:32.332Z,5
2019-06-08T06:42:35.277Z,5
2019-06-08T06:43:33.898Z,5
2019-06-08T06:44:32.179Z,5
2019-06-08T06:49:53.236Z,5
2019-06-08T06:50:04.303Z,5
2019-06-08T06:51:04.281Z,5
2019-06-08T06:52:04.207Z,5
2019-06-08T06:53:04.222Z,5
2019-06-08T06:54:04.183Z,5
2019-06-08T06:55:04.689Z,5
2019-06-08T06:56:04.259Z,5
2019-06-08T06:57:04.766Z,5
2019-06-08T06:58:04.394Z,5
2019-06-08T06:59:04.254Z,5
2019-06-08T07:00:04.767Z,10
2019-06-08T07:01:04.546Z,10
2019-06-08T07:02:07.907Z,5
2019-06-08T07:03:06.465Z,5
2019-06-08T07:04:04.817Z,10
2019-06-08T07:05:05.326Z,10
2019-06-08T07:06:04.770Z,10
2019-06-08T07:07:05.443Z,10
2019-06-08T07:08:05.000Z,10
2019-06-08T07:09:05.027Z,10
2019-06-08T07:10:05.403Z,10
2019-06-08T07:11:05.579Z,10
2019-06-08T07:12:07.058Z,10
2019-06-08T07:13:05.598Z,10
2019-06-08T07:14:05.596Z,10
2019-06-08T07:15:05.870Z,10
2019-06-08T07:16:25.129Z,15
2019-06-08T07:17:04.572Z,15
2019-06-08T07:18:06.482Z,15
2019-06-08T07:19:06.998Z,20
2019-06-08T07:20:05.171Z,20
2019-06-08T07:21:06.031Z,20
2019-06-08T07:22:06.343Z,20
2019-06-08T07:23:04.876Z,20
2019-06-08T07:24:06.627Z,20
2019-06-08T07:25:06.677Z,20
2019-06-08T07:26:04.917Z,20
2019-06-08T07:27:07.426Z,20
2019-06-08T07:28:07.249Z,20
2019-06-08T07:29:06.834Z,20
2019-06-08T07:30:05.403Z,20
2019-06-08T07:31:05.585Z,20
2019-06-08T07:32:07.181Z,20
2019-06-08T07:33:05.524Z,20
2019-06-08T07:34:07.775Z,20
2019-06-08T07:35:05.791Z,20
2019-06-08T07:36:06.234Z,20
2019-06-08T07:37:07.606Z,20
2019-06-08T07:38:05.138Z,20
2019-06-08T07:39:04.854Z,20
2019-06-08T07:40:05.417Z,20
2019-06-08T07:41:09.459Z,20
2019-06-08T07:42:05.207Z,20
2019-06-08T07:43:08.536Z,20
2019-06-08T07:44:06.261Z,15
2019-06-08T07:45:08.147Z,15
2019-06-08T07:46:04.847Z,15
2019-06-08T07:47:05.342Z,15
2019-06-08T07:48:05.712Z,15
2019-06-08T07:49:06.363Z,15
2019-06-08T07:50:09.966Z,10
2019-06-08T07:51:06.129Z,10
2019-06-08T07:52:18.803Z,10
2019-06-08T07:53:05.036Z,15
2019-06-08T07:54:05.117Z,15
2019-06-08T07:55:06.331Z,15
2019-06-08T07:56:05.058Z,15
2019-06-08T07:57:05.346Z,15
2019-06-08T07:58:05.573Z,15
2019-06-08T07:59:06.789Z,15
2019-06-08T08:00:11.811Z,15
2019-06-08T08:01:15.468Z,15
2019-06-08T08:02:04.369Z,15
2019-06-08T08:03:06.042Z,15
2019-06-08T08:04:04.576Z,15
2019-06-08T08:05:06.603Z,15
2019-06-08T08:06:06.731Z,15
2019-06-08T08:07:06.516Z,15
2019-06-08T08:08:06.704Z,20
2019-06-08T08:09:06.669Z,20
2019-06-08T08:10:07.885Z,20
2019-06-08T08:11:04.991Z,20
2019-06-08T08:12:09.843Z,20
2019-06-08T08:13:05.128Z,20
2019-06-08T08:14:06.967Z,20
2019-06-08T08:15:07.224Z,20
2019-06-08T08:16:08.563Z,20
2019-06-08T08:17:05.413Z,20
2019-06-08T08:18:06.396Z,20
2019-06-08T08:19:05.475Z,20
2019-06-08T08:20:05.560Z,20
2019-06-08T08:21:29.806Z,20
2019-06-08T08:22:32.296Z,20
2019-06-08T08:23:14.504Z,20
2019-06-08T08:24:09.965Z,20
2019-06-08T08:25:13.453Z,20
2019-06-08T08:26:09.056Z,20
2019-06-08T08:27:13.569Z,20
2019-06-08T08:28:10.756Z,20
2019-06-08T08:29:11.334Z,20
2019-06-08T08:30:10.895Z,25
2019-06-08T08:31:11.052Z,25
2019-06-08T08:32:10.465Z,25
2019-06-08T08:33:12.918Z,25
2019-06-08T08:34:14.298Z,25
2019-06-08T08:35:11.341Z,25
2019-06-08T08:36:09.906Z,25
2019-06-08T08:37:14.454Z,30
2019-06-08T08:38:12.860Z,30
2019-06-08T08:39:11.293Z,30
2019-06-08T08:40:10.535Z,30
2019-06-08T08:41:18.084Z,30
2019-06-08T08:42:13.724Z,30
2019-06-08T08:43:09.319Z,35
2019-06-08T08:44:10.651Z,35
2019-06-08T08:45:14.093Z,35
2019-06-08T08:46:07.737Z,35
2019-06-08T08:47:10.418Z,35
2019-06-08T08:48:37.692Z,35
2019-06-08T08:49:20.784Z,35
2019-06-08T08:50:10.024Z,35
2019-06-08T08:51:11.234Z,35
2019-06-08T08:52:08.774Z,35
2019-06-08T08:53:10.830Z,80
2019-06-08T08:54:14.333Z,90
2019-06-08T08:55:08.399Z,40
2019-06-08T08:56:10.047Z,50
2019-06-08T08:57:13.696Z,55
2019-06-08T08:58:08.456Z,60
2019-06-08T08:59:12.922Z,40
2019-06-08T09:00:13.871Z,45
2019-06-08T09:01:10.858Z,40
2019-06-08T09:02:13.853Z,40
2019-06-08T09:03:42.174Z,35
2019-06-08T09:04:14.095Z,35
2019-06-08T09:05:11.304Z,35
2019-06-08T09:06:13.777Z,35
2019-06-08T09:07:18.197Z,35
2019-06-08T09:08:13.887Z,35
2019-06-08T09:09:11.600Z,35
2019-06-08T09:10:13.507Z,80
2019-06-08T09:11:10.863Z,45
2019-06-08T09:12:13.437Z,40
2019-06-08T09:13:18.545Z,40
2019-06-08T09:14:21.077Z,55
2019-06-08T09:15:11.304Z,80
2019-06-08T09:16:10.747Z,95
2019-06-08T09:17:11.322Z,50
2019-06-08T09:18:13.335Z,95
2019-06-08T09:19:11.284Z,80
2019-06-08T09:20:20.852Z,90
2019-06-08T09:21:11.066Z,95
2019-06-08T09:22:11.269Z,90
2019-06-08T09:23:27.968Z,85
2019-06-08T09:24:13.145Z,85
2019-06-08T09:25:18.139Z,85
2019-06-08T09:26:20.272Z,85
2019-06-08T09:27:13.285Z,40
2019-06-08T09:28:11.069Z,90
2019-06-08T09:29:18.705Z,90
2019-06-08T09:30:11.004Z,90
2019-06-08T09:31:13.255Z,90
2019-06-08T09:32:10.936Z,90
2019-06-08T09:33:10.721Z,90
2019-06-08T09:34:24.738Z,90
2019-06-08T09:35:12.017Z,90
2019-06-08T09:36:10.965Z,85
2019-06-08T09:37:13.177Z,85
2019-06-08T09:38:13.308Z,85
2019-06-08T09:39:18.515Z,85
2019-06-08T09:40:08.885Z,85
2019-06-08T09:41:11.677Z,85
2019-06-08T09:42:11.706Z,85
2019-06-08T09:43:21.667Z,85
2019-06-08T09:44:18.456Z,90
2019-06-08T09:45:14.229Z,85
2019-06-08T09:46:12.409Z,85
2019-06-08T09:47:20.893Z,85
2019-06-08T09:48:14.019Z,85
2019-06-08T09:49:18.731Z,85
2019-06-08T09:50:12.001Z,90
2019-06-08T09:51:12.152Z,85
2019-06-08T09:52:13.983Z,30
2019-06-08T09:53:44.379Z,25
2019-06-08T09:54:20.509Z,20
2019-06-08T09:55:13.908Z,25
2019-06-08T09:56:14.932Z,90
2019-06-08T09:57:13.612Z,100
2019-06-08T09:58:18.019Z,25
2019-06-08T09:59:18.885Z,75
2019-06-08T10:00:26.228Z,95
2019-06-08T10:01:15.058Z,95
2019-06-08T10:02:21.014Z,85
2019-06-08T10:03:12.452Z,30
2019-06-08T10:04:13.658Z,30
2019-06-08T10:05:11.324Z,30
2019-06-08T10:06:18.190Z,100
2019-06-08T10:07:11.610Z,60
2019-06-08T10:08:12.170Z,75
2019-06-08T10:09:08.961Z,45
2019-06-08T10:10:12.481Z,90
2019-06-08T10:11:12.430Z,90
2019-06-08T10:12:12.588Z,90
2019-06-08T10:13:12.871Z,90
2019-06-08T10:14:15.493Z,85
2019-06-08T10:15:10.710Z,60
2019-06-08T10:16:18.323Z,85
2019-06-08T10:17:11.653Z,70
2019-06-08T10:18:10.823Z,25
2019-06-08T10:19:15.289Z,90
2019-06-08T10:20:12.781Z,25
2019-06-08T10:21:12.270Z,90
2019-06-08T10:22:11.198Z,90
2019-06-08T10:23:34.457Z,85
2019-06-08T10:24:12.394Z,85
2019-06-08T10:25:16.042Z,85
2019-06-08T10:26:09.936Z,85
2019-06-08T10:27:13.791Z,30
2019-06-08T10:28:24.009Z,80
2019-06-08T10:29:21.133Z,85
2019-06-08T10:30:12.781Z,75
2019-06-08T10:31:11.732Z,80
2019-06-08T10:32:08.918Z,85
2019-06-08T10:33:14.754Z,90
2019-06-08T10:34:16.031Z,90
2019-06-08T10:35:13.278Z,45
2019-06-08T10:36:18.105Z,25
2019-06-08T10:37:21.201Z,45
2019-06-08T10:38:18.060Z,90
2019-06-08T10:39:16.102Z,95
2019-06-08T10:40:12.973Z,95
2019-06-08T10:41:27.780Z,95
2019-06-08T10:42:13.933Z,95
2019-06-08T10:43:13.690Z,95
2019-06-08T10:44:13.640Z,90
2019-06-08T10:45:18.485Z,95
2019-06-08T10:46:23.065Z,95
2019-06-08T10:47:14.604Z,35
2019-06-08T10:48:12.329Z,40
2019-06-08T10:49:14.084Z,30
2019-06-08T10:50:21.909Z,30
2019-06-08T10:51:15.179Z,35
2019-06-08T10:52:14.574Z,35
2019-06-08T10:53:16.587Z,95
2019-06-08T10:54:11.624Z,100
2019-06-08T10:55:14.174Z,95
2019-06-08T10:56:14.676Z,105
2019-06-08T10:57:12.609Z,35
2019-06-08T10:58:11.203Z,60
2019-06-08T10:59:18.474Z,70
2019-06-08T11:00:27.918Z,35
2019-06-08T11:01:18.575Z,25
2019-06-08T11:02:18.793Z,25
2019-06-08T11:03:14.385Z,25
2019-06-08T11:04:09.936Z,80
2019-06-08T11:05:18.051Z,50
2019-06-08T11:06:15.697Z,75
2019-06-08T11:07:19.157Z,75
2019-06-08T11:08:18.732Z,70
2019-06-08T11:09:18.795Z,75
2019-06-08T11:10:12.934Z,55
2019-06-08T11:11:14.198Z,75
2019-06-08T11:12:18.142Z,75
2019-06-08T11:13:21.384Z,20
2019-06-08T11:14:15.160Z,70
2019-06-08T11:15:13.978Z,70
2019-06-08T11:16:17.911Z,75
2019-06-08T11:17:09.858Z,25
2019-06-08T11:18:18.291Z,50
2019-06-08T11:19:17.931Z,70
2019-06-08T11:20:15.770Z,70
2019-06-08T11:21:13.095Z,60
2019-06-08T11:22:18.014Z,65
2019-06-08T11:23:13.219Z,65
2019-06-08T11:24:34.247Z,60
2019-06-08T11:25:19.822Z,65
2019-06-08T11:26:28.884Z,70
2019-06-08T11:27:11.002Z,65
2019-06-08T11:28:18.421Z,70
2019-06-08T11:29:21.479Z,65
2019-06-08T11:30:27.945Z,65
2019-06-08T11:31:11.847Z,65
2019-06-08T11:32:14.654Z,65
2019-06-08T11:33:12.146Z,65
2019-06-08T11:34:11.104Z,40
2019-06-08T11:35:10.427Z,65
2019-06-08T11:40:27.816Z,65
2019-06-08T11:41:38.929Z,60
2019-06-08T11:42:41.411Z,60
2019-06-08T11:43:40.777Z,60
2019-06-08T11:44:41.936Z,45
2019-06-08T11:45:40.589Z,60
2019-06-08T11:46:42.627Z,60
2019-06-08T11:47:44.409Z,60
2019-06-08T11:48:43.951Z,55
2019-06-08T11:49:38.904Z,40
2019-06-08T11:50:44.287Z,35
2019-06-08T11:51:42.998Z,55
2019-06-08T11:52:40.876Z,60
2019-06-08T11:53:41.175Z,60
2019-06-08T11:54:50.746Z,60
2019-06-08T11:55:41.026Z,55
2019-06-08T11:56:43.014Z,60
2019-06-08T11:57:42.789Z,60
2019-06-08T11:58:43.671Z,60
2019-06-08T12:03:57.924Z,10
2019-06-08T12:04:10.441Z,10
2019-06-08T12:09:28.626Z,60
2019-06-08T12:09:40.048Z,60
2019-06-08T12:10:43.598Z,60
2019-06-08T12:11:40.945Z,50
2019-06-08T12:12:41.170Z,55
2019-06-08T12:13:39.722Z,55
2019-06-08T12:14:47.435Z,60
2019-06-08T12:15:41.528Z,60
2019-06-08T12:16:40.503Z,55
2019-06-08T12:17:43.725Z,55
2019-06-08T12:18:42.775Z,55
2019-06-08T12:19:42.984Z,60
2019-06-08T12:20:40.326Z,60
2019-06-08T12:21:40.543Z,60
2019-06-08T12:22:42.617Z,55
2019-06-08T12:23:39.799Z,60
2019-06-08T12:24:51.787Z,55
2019-06-08T12:25:42.958Z,55
2019-06-08T12:26:39.748Z,55
2019-06-08T12:27:48.807Z,55
2019-06-08T12:28:40.810Z,55
2019-06-08T12:29:40.094Z,60
2019-06-08T12:30:41.129Z,60
2019-06-08T12:31:40.464Z,50
2019-06-08T12:32:39.808Z,55
2019-06-08T12:33:44.671Z,55
2019-06-08T12:34:40.991Z,55
2019-06-08T12:35:39.769Z,55
2019-06-08T12:36:42.747Z,55
2019-06-08T12:37:41.377Z,60
2019-06-08T12:38:45.808Z,55
2019-06-08T12:39:41.817Z,55
2019-06-08T12:40:43.403Z,50
2019-06-08T12:41:43.023Z,55
2019-06-08T12:42:40.823Z,55
2019-06-08T12:43:41.172Z,55
2019-06-08T12:44:43.625Z,55
2019-06-08T12:45:40.734Z,55
2019-06-08T12:46:43.792Z,55
2019-06-08T12:47:40.847Z,55
2019-06-08T12:48:41.141Z,55
2019-06-08T12:49:42.849Z,60
2019-06-08T12:50:41.284Z,55
2019-06-08T12:51:40.106Z,55
2019-06-08T12:52:43.199Z,55
2019-06-08T12:53:40.969Z,55
2019-06-08T12:54:39.773Z,55
2019-06-08T12:55:40.431Z,55
2019-06-08T12:56:40.416Z,50
2019-06-08T12:57:40.136Z,45
2019-06-08T12:58:41.338Z,40
2019-06-08T12:59:41.158Z,50
2019-06-08T13:00:40.726Z,15
2019-06-08T13:01:40.799Z,55
2019-06-08T13:02:41.068Z,50
2019-06-08T13:03:43.234Z,55
2019-06-08T13:04:41.104Z,45
2019-06-08T13:05:40.627Z,55
2019-06-08T13:06:43.193Z,55
2019-06-08T13:07:41.269Z,50
2019-06-08T13:08:39.930Z,50
2019-06-08T13:09:43.271Z,50
2019-06-08T13:10:40.877Z,50
2019-06-08T13:11:39.845Z,50
2019-06-08T13:12:43.350Z,50
2019-06-08T13:13:40.427Z,45
2019-06-08T13:14:41.217Z,45
2019-06-08T13:15:44.004Z,50
2019-06-08T13:16:40.872Z,45
2019-06-08T13:17:43.243Z,45
2019-06-08T13:18:43.216Z,45
2019-06-08T13:19:41.413Z,45
2019-06-08T13:20:41.582Z,45
2019-06-08T13:21:48.478Z,45
2019-06-08T13:22:44.237Z,45
2019-06-08T13:23:43.546Z,40
2019-06-08T13:24:40.361Z,45
2019-06-08T13:25:53.447Z,45
2019-06-08T13:26:41.541Z,45
2019-06-08T13:27:40.605Z,45
2019-06-08T13:28:41.188Z,45
2019-06-08T13:29:40.023Z,45
2019-06-08T13:30:44.253Z,45
2019-06-08T13:31:40.962Z,45
2019-06-08T13:32:42.816Z,45
2019-06-08T13:33:40.935Z,45
2019-06-08T13:34:41.452Z,45
2019-06-08T13:35:42.217Z,45
2019-06-08T13:36:44.127Z,45
2019-06-08T13:37:41.809Z,45
2019-06-08T13:38:40.708Z,40
2019-06-08T13:39:41.495Z,45
2019-06-08T13:40:42.762Z,45
2019-06-08T13:41:41.031Z,45
2019-06-08T13:42:40.998Z,60
2019-06-08T13:43:43.079Z,60
2019-06-08T13:44:40.476Z,60
2019-06-08T13:45:42.062Z,60
2019-06-08T13:46:40.591Z,60
2019-06-08T13:47:45.597Z,55
2019-06-08T13:48:40.335Z,60
2019-06-08T13:49:42.909Z,50
2019-06-08T13:50:39.956Z,50
2019-06-08T13:51:41.256Z,50
2019-06-08T13:52:41.118Z,55
2019-06-08T13:53:43.583Z,55
2019-06-08T13:54:43.449Z,55
2019-06-08T13:56:04.507Z,55
2019-06-08T13:56:41.269Z,50
2019-06-08T13:57:40.990Z,55
2019-06-08T13:58:48.340Z,50
2019-06-08T13:59:41.720Z,50
2019-06-08T14:00:41.238Z,55
2019-06-08T14:01:43.091Z,55
2019-06-08T14:02:44.939Z,55
2019-06-08T14:03:40.242Z,55
2019-06-08T14:04:42.349Z,55
2019-06-08T14:05:43.951Z,35
2019-06-08T14:06:39.946Z,15
2019-06-08T14:07:47.928Z,55
2019-06-08T14:08:43.912Z,55
2019-06-08T14:09:43.869Z,55
2019-06-08T14:10:41.350Z,55
2019-06-08T14:11:39.943Z,55
2019-06-08T14:12:43.753Z,55
2019-06-08T14:13:47.927Z,55
2019-06-08T14:14:44.998Z,55
2019-06-08T14:15:41.037Z,55
2019-06-08T14:18:49.189Z,55
2019-06-08T14:19:00.136Z,50
2019-06-08T14:20:07.887Z,50
2019-06-08T14:21:04.682Z,50
2019-06-08T14:22:00.259Z,50
2019-06-08T14:23:01.562Z,50
2019-06-08T14:24:01.427Z,50
2019-06-08T14:25:00.185Z,50
2019-06-08T14:26:08.369Z,50
2019-06-08T14:27:01.458Z,50
2019-06-08T14:28:02.803Z,50
2019-06-08T14:29:04.019Z,50
2019-06-08T14:30:03.581Z,50
2019-06-08T14:31:02.074Z,50
2019-06-08T14:32:02.874Z,35
2019-06-08T14:33:03.151Z,20
2019-06-08T14:34:00.205Z,35
2019-06-08T14:35:02.880Z,50
2019-06-08T14:36:04.337Z,10
2019-06-08T14:37:02.174Z,15
2019-06-08T14:38:00.603Z,55
2019-06-08T14:39:04.702Z,50
2019-06-08T14:40:02.645Z,40
2019-06-08T14:41:01.754Z,35
2019-06-08T14:42:00.505Z,35
2019-06-08T14:43:00.777Z,20
2019-06-08T14:44:03.723Z,35
2019-06-08T14:45:00.547Z,50
2019-06-08T14:46:00.647Z,55
2019-06-08T14:47:00.683Z,55
2019-06-08T14:48:01.424Z,60
2019-06-08T14:49:01.207Z,60
2019-06-08T14:50:03.721Z,60
2019-06-08T14:51:01.668Z,60
2019-06-08T14:52:00.675Z,60
2019-06-08T14:53:03.961Z,60
2019-06-08T14:54:00.911Z,60
2019-06-08T14:55:03.806Z,60
2019-06-08T14:56:18.483Z,60
2019-06-08T14:57:03.248Z,60
2019-06-08T14:58:00.797Z,60
2019-06-08T14:59:03.074Z,60
2019-06-08T15:00:12.514Z,60
2019-06-08T15:01:00.624Z,60
2019-06-08T15:02:00.261Z,60